createdAt,value
2023-01-27T00:00:36.956Z,18.10
2023-01-27T00:01:36.951Z,15.40
2023-01-27T00:02:38.515Z,15.30
2023-01-27T00:03:37.004Z,17.00
2023-01-27T00:04:36.917Z,15.90
2023-01-27T00:05:36.913Z,13.10
2023-01-27T00:06:36.904Z,14.90
2023-01-27T00:07:36.892Z,15.20
2023-01-27T00:08:36.880Z,15.60
2023-01-27T00:09:36.866Z,14.60
2023-01-27T00:10:36.859Z,14.00
2023-01-27T00:11:36.851Z,15.60
2023-01-27T00:12:36.839Z,15.90
2023-01-27T00:13:36.829Z,16.90
2023-01-27T00:14:36.844Z,15.50
2023-01-27T00:15:36.912Z,15.00
2023-01-27T00:16:36.808Z,17.40
2023-01-27T00:17:36.792Z,15.00
2023-01-27T00:18:36.778Z,16.20
2023-01-27T00:19:36.779Z,15.60
2023-01-27T00:20:36.760Z,14.30
2023-01-27T00:21:36.755Z,12.10
2023-01-27T00:22:36.744Z,15.20
2023-01-27T00:23:36.734Z,15.10
2023-01-27T00:24:36.735Z,16.30
2023-01-27T00:25:36.715Z,14.00
2023-01-27T00:26:36.720Z,13.50
2023-01-27T00:27:36.757Z,13.30
2023-01-27T00:28:36.683Z,16.70
2023-01-27T00:29:36.681Z,12.40
2023-01-27T00:30:36.777Z,13.50
2023-01-27T00:31:36.763Z,12.10
2023-01-27T00:32:36.649Z,14.70
2023-01-27T00:33:36.645Z,13.40
2023-01-27T00:34:36.631Z,16.00
2023-01-27T00:35:36.624Z,17.40
2023-01-27T00:36:36.611Z,18.00
2023-01-27T00:37:36.607Z,12.80
2023-01-27T00:38:36.601Z,14.50
2023-01-27T00:39:36.585Z,14.70
2023-01-27T00:40:36.573Z,12.70
2023-01-27T00:41:36.572Z,17.00
2023-01-27T00:42:36.552Z,14.50
2023-01-27T00:43:36.547Z,14.80
2023-01-27T00:44:36.546Z,15.40
2023-01-27T00:45:36.528Z,13.60
2023-01-27T00:46:36.613Z,15.50
2023-01-27T00:47:36.508Z,16.40
2023-01-27T00:48:36.500Z,15.00
2023-01-27T00:49:36.495Z,13.80
2023-01-27T00:50:36.481Z,14.70
2023-01-27T00:51:36.474Z,14.40
2023-01-27T00:52:36.456Z,13.10
2023-01-27T00:53:36.449Z,16.10
2023-01-27T00:54:36.438Z,15.40
2023-01-27T00:55:36.429Z,14.10
2023-01-27T00:56:36.418Z,15.60
2023-01-27T00:57:36.409Z,15.00
2023-01-27T00:58:36.402Z,17.70
2023-01-27T00:59:36.840Z,17.50
2023-01-27T01:00:36.381Z,17.40
2023-01-27T01:01:36.417Z,16.30
2023-01-27T01:02:36.396Z,17.40
2023-01-27T01:03:36.355Z,22.10
2023-01-27T01:04:36.343Z,19.20
2023-01-27T01:05:36.338Z,19.10
2023-01-27T01:06:36.327Z,21.30
2023-01-27T01:07:36.323Z,19.90
2023-01-27T01:08:36.305Z,20.60
2023-01-27T01:09:36.302Z,19.00
2023-01-27T01:10:36.286Z,19.20
2023-01-27T01:11:36.277Z,19.10
2023-01-27T01:12:36.264Z,20.20
2023-01-27T01:13:36.256Z,20.20
2023-01-27T01:14:36.245Z,18.00
2023-01-27T01:15:36.237Z,16.90
2023-01-27T01:16:36.228Z,19.50
2023-01-27T01:17:36.218Z,18.20
2023-01-27T01:18:36.271Z,20.40
2023-01-27T01:19:36.214Z,19.00
2023-01-27T01:20:36.189Z,19.80
2023-01-27T01:21:36.182Z,20.10
2023-01-27T01:22:36.169Z,21.00
2023-01-27T01:23:36.161Z,19.30
2023-01-27T01:24:36.149Z,20.40
2023-01-27T01:25:36.142Z,21.60
2023-01-27T01:26:36.134Z,18.20
2023-01-27T01:27:36.123Z,18.70
2023-01-27T01:28:36.118Z,17.90
2023-01-27T01:29:36.102Z,18.00
2023-01-27T01:30:36.146Z,16.50
2023-01-27T01:31:36.156Z,16.70
2023-01-27T01:32:36.071Z,16.70
2023-01-27T01:33:36.068Z,15.90
2023-01-27T01:34:36.069Z,17.70
2023-01-27T01:35:36.049Z,17.30
2023-01-27T01:36:36.035Z,17.50
2023-01-27T01:37:36.023Z,18.40
2023-01-27T01:38:36.023Z,18.50
2023-01-27T01:39:36.006Z,18.20
2023-01-27T01:40:35.997Z,18.60
2023-01-27T01:41:35.991Z,18.30
2023-01-27T01:42:35.974Z,17.30
2023-01-27T01:43:35.976Z,19.20
2023-01-27T01:44:35.956Z,17.80
2023-01-27T01:45:35.950Z,16.70
2023-01-27T01:46:35.985Z,14.60
2023-01-27T01:47:35.927Z,16.70
2023-01-27T01:48:35.918Z,15.70
2023-01-27T01:49:35.913Z,15.30
2023-01-27T01:50:35.919Z,16.20
2023-01-27T01:51:35.889Z,14.80
2023-01-27T01:52:35.880Z,14.20
2023-01-27T01:53:35.877Z,14.70
2023-01-27T01:54:35.861Z,15.70
2023-01-27T01:55:35.854Z,16.40
2023-01-27T01:56:35.860Z,13.60
2023-01-27T01:57:35.834Z,13.80
2023-01-27T01:58:35.820Z,16.00
2023-01-27T01:59:35.811Z,16.60
2023-01-27T02:00:35.803Z,18.00
2023-01-27T02:01:35.798Z,16.90
2023-01-27T02:02:35.841Z,14.80
2023-01-27T02:03:35.771Z,16.80
2023-01-27T02:04:35.768Z,19.30
2023-01-27T02:05:35.779Z,15.90
2023-01-27T02:06:35.761Z,16.00
2023-01-27T02:07:35.749Z,17.90
2023-01-27T02:08:35.726Z,19.40
2023-01-27T02:09:35.714Z,16.90
2023-01-27T02:10:35.705Z,17.90
2023-01-27T02:11:35.697Z,20.40
2023-01-27T02:12:35.687Z,18.70
2023-01-27T02:13:35.680Z,19.90
2023-01-27T02:14:35.672Z,20.00
2023-01-27T02:15:35.657Z,22.60
2023-01-27T02:16:35.721Z,21.40
2023-01-27T02:17:35.638Z,18.00
2023-01-27T02:18:35.626Z,18.90
2023-01-27T02:19:35.617Z,21.00
2023-01-27T02:20:35.608Z,19.20
2023-01-27T02:21:35.599Z,20.20
2023-01-27T02:22:35.610Z,22.30
2023-01-27T02:23:35.579Z,20.80
2023-01-27T02:24:35.572Z,20.70
2023-01-27T02:25:35.558Z,21.30
2023-01-27T02:26:35.556Z,22.60
2023-01-27T02:27:35.541Z,18.90
2023-01-27T02:28:35.531Z,23.10
2023-01-27T02:29:35.520Z,18.90
2023-01-27T02:30:35.721Z,18.20
2023-01-27T02:31:35.702Z,21.30
2023-01-27T02:32:35.506Z,17.40
2023-01-27T02:33:35.486Z,17.20
2023-01-27T02:34:35.474Z,16.50
2023-01-27T02:35:35.462Z,15.80
2023-01-27T02:36:35.454Z,14.30
2023-01-27T02:37:35.644Z,11.30
2023-01-27T02:38:35.453Z,12.00
2023-01-27T02:39:35.429Z,12.50
2023-01-27T02:40:35.417Z,11.80
2023-01-27T02:41:35.449Z,10.70
2023-01-27T02:42:35.397Z,11.10
2023-01-27T02:43:35.389Z,12.60
2023-01-27T02:44:35.383Z,12.00
2023-01-27T02:45:35.369Z,11.80
2023-01-27T02:46:35.361Z,10.70
2023-01-27T02:47:35.346Z,10.80
2023-01-27T02:48:35.341Z,11.50
2023-01-27T02:49:35.329Z,11.40
2023-01-27T02:50:35.325Z,11.10
2023-01-27T02:51:35.307Z,11.90
2023-01-27T02:52:35.299Z,11.20
2023-01-27T02:53:35.289Z,11.90
2023-01-27T02:54:35.308Z,12.60
2023-01-27T02:55:35.270Z,13.10
2023-01-27T02:56:35.271Z,12.90
2023-01-27T02:57:35.254Z,13.70
2023-01-27T02:58:35.241Z,14.00
2023-01-27T02:59:35.238Z,13.70
2023-01-27T03:00:35.231Z,14.50
2023-01-27T03:01:35.229Z,16.30
2023-01-27T03:02:35.255Z,14.30
2023-01-27T03:03:35.192Z,14.30
2023-01-27T03:04:35.183Z,13.80
2023-01-27T03:05:35.178Z,15.20
2023-01-27T03:06:35.164Z,13.70
2023-01-27T03:07:35.157Z,14.20
2023-01-27T03:08:35.142Z,13.30
2023-01-27T03:09:35.140Z,12.90
2023-01-27T03:10:35.144Z,11.50
2023-01-27T03:11:35.111Z,13.60
2023-01-27T03:12:35.105Z,13.80
2023-01-27T03:13:35.091Z,13.50
2023-01-27T03:14:35.088Z,14.20
2023-01-27T03:15:35.083Z,15.00
2023-01-27T03:16:35.062Z,15.00
2023-01-27T03:17:35.053Z,15.30
2023-01-27T03:18:35.043Z,14.40
2023-01-27T03:19:35.044Z,15.40
2023-01-27T03:20:35.033Z,15.40
2023-01-27T03:21:35.012Z,15.60
2023-01-27T03:22:35.001Z,14.60
2023-01-27T03:23:35.045Z,16.30
2023-01-27T03:24:34.984Z,15.30
2023-01-27T03:25:34.973Z,16.10
2023-01-27T03:26:34.983Z,16.20
2023-01-27T03:27:34.953Z,15.90
2023-01-27T03:28:34.945Z,14.90
2023-01-27T03:29:34.936Z,16.70
2023-01-27T03:30:34.997Z,15.10
2023-01-27T03:31:35.043Z,16.00
2023-01-27T03:32:34.901Z,15.10
2023-01-27T03:33:34.890Z,16.20
2023-01-27T03:34:34.884Z,16.70
2023-01-27T03:35:34.873Z,17.20
2023-01-27T03:36:34.861Z,17.20
2023-01-27T03:37:34.853Z,17.70
2023-01-27T03:38:35.196Z,15.40
2023-01-27T03:39:34.831Z,15.40
2023-01-27T03:40:34.824Z,15.40
2023-01-27T03:41:34.816Z,16.60
2023-01-27T03:42:34.824Z,14.60
2023-01-27T03:43:34.792Z,15.50
2023-01-27T03:44:34.780Z,17.00
2023-01-27T03:45:34.767Z,15.60
2023-01-27T03:46:34.775Z,15.50
2023-01-27T03:47:34.750Z,15.10
2023-01-27T03:48:34.740Z,15.10
2023-01-27T03:49:34.731Z,15.10
2023-01-27T03:50:34.742Z,16.70
2023-01-27T03:51:34.704Z,17.60
2023-01-27T03:52:34.700Z,15.30
2023-01-27T03:53:34.689Z,13.30
2023-01-27T03:54:34.688Z,12.50
2023-01-27T03:55:34.678Z,15.90
2023-01-27T03:56:34.658Z,15.20
2023-01-27T03:57:34.646Z,13.80
2023-01-27T03:58:34.655Z,14.70
2023-01-27T03:59:34.628Z,14.00
2023-01-27T04:00:34.621Z,14.40
2023-01-27T04:01:34.671Z,13.70
2023-01-27T04:02:34.593Z,14.40
2023-01-27T04:03:34.583Z,15.10
2023-01-27T04:04:34.579Z,14.20
2023-01-27T04:05:34.564Z,14.00
2023-01-27T04:06:34.557Z,13.70
2023-01-27T04:07:34.543Z,13.90
2023-01-27T04:08:34.534Z,14.30
2023-01-27T04:09:34.520Z,12.60
2023-01-27T04:10:34.516Z,14.30
2023-01-27T04:11:34.504Z,13.90
2023-01-27T04:12:34.492Z,12.40
2023-01-27T04:13:34.482Z,12.50
2023-01-27T04:14:34.490Z,11.90
2023-01-27T04:15:34.478Z,12.90
2023-01-27T04:16:34.467Z,13.30
2023-01-27T04:17:34.438Z,13.30
2023-01-27T04:18:34.430Z,12.00
2023-01-27T04:19:34.420Z,10.90
2023-01-27T04:20:34.410Z,12.00
2023-01-27T04:21:34.405Z,11.90
2023-01-27T04:22:34.387Z,11.50
2023-01-27T04:23:34.377Z,11.70
2023-01-27T04:24:34.374Z,12.90
2023-01-27T04:25:34.358Z,11.30
2023-01-27T04:26:34.363Z,11.90
2023-01-27T04:27:34.337Z,11.60
2023-01-27T04:28:43.850Z,12.80
2023-01-27T04:29:34.324Z,11.60
2023-01-27T04:30:34.341Z,12.20
2023-01-27T04:31:34.325Z,13.40
2023-01-27T04:32:34.287Z,12.80
2023-01-27T04:33:34.278Z,13.30
2023-01-27T04:34:34.269Z,12.80
2023-01-27T04:35:38.838Z,14.10
2023-01-27T04:36:34.246Z,13.80
2023-01-27T04:37:34.239Z,11.80
2023-01-27T04:38:34.229Z,13.20
2023-01-27T04:39:34.211Z,12.80
2023-01-27T04:40:34.207Z,14.90
2023-01-27T04:41:34.194Z,13.20
2023-01-27T04:42:34.183Z,14.60
2023-01-27T04:43:34.323Z,14.30
2023-01-27T04:44:34.164Z,14.70
2023-01-27T04:45:34.192Z,14.10
2023-01-27T04:46:34.165Z,14.70
2023-01-27T04:47:34.131Z,13.80
2023-01-27T04:48:34.122Z,13.90
2023-01-27T04:49:34.110Z,16.30
2023-01-27T04:50:34.101Z,15.00
2023-01-27T04:51:34.088Z,16.20
2023-01-27T04:52:34.097Z,15.10
2023-01-27T04:53:34.098Z,16.00
2023-01-27T04:54:34.080Z,16.40
2023-01-27T04:55:34.049Z,16.10
2023-01-27T04:56:34.082Z,17.20
2023-01-27T04:57:34.028Z,16.90
2023-01-27T04:58:34.017Z,16.00
2023-01-27T04:59:34.038Z,19.00
2023-01-27T05:00:34.007Z,18.90
2023-01-27T05:01:34.090Z,17.10
2023-01-27T05:02:34.068Z,17.60
2023-01-27T05:03:33.965Z,16.80
2023-01-27T05:04:33.969Z,18.50
2023-01-27T05:05:34.014Z,17.80
2023-01-27T05:06:33.994Z,18.50
2023-01-27T05:07:33.966Z,19.00
2023-01-27T05:08:33.967Z,17.50
2023-01-27T05:09:33.920Z,19.00
2023-01-27T05:10:33.910Z,18.40
2023-01-27T05:11:33.882Z,16.60
2023-01-27T05:12:33.874Z,19.60
2023-01-27T05:13:33.862Z,21.00
2023-01-27T05:14:33.862Z,18.50
2023-01-27T05:15:33.896Z,17.50
2023-01-27T05:16:33.893Z,21.10
2023-01-27T05:17:33.824Z,18.90
2023-01-27T05:18:33.828Z,19.10
2023-01-27T05:19:33.804Z,18.50
2023-01-27T05:20:33.797Z,18.60
2023-01-27T05:21:33.779Z,17.60
2023-01-27T05:22:33.771Z,20.30
2023-01-27T05:23:33.763Z,18.60
2023-01-27T05:24:33.751Z,19.20
2023-01-27T05:25:33.739Z,19.50
2023-01-27T05:26:33.737Z,18.00
2023-01-27T05:27:33.718Z,18.40
2023-01-27T05:28:33.710Z,18.70
2023-01-27T05:29:33.697Z,18.40
2023-01-27T05:30:33.723Z,19.60
2023-01-27T05:31:33.804Z,19.90
2023-01-27T05:32:33.669Z,20.40
2023-01-27T05:33:33.688Z,20.20
2023-01-27T05:34:33.668Z,19.50
2023-01-27T05:35:33.635Z,21.50
2023-01-27T05:36:33.632Z,19.40
2023-01-27T05:37:33.617Z,20.50
2023-01-27T05:38:33.605Z,21.30
2023-01-27T05:39:33.594Z,18.60
2023-01-27T05:40:33.609Z,19.80
2023-01-27T05:41:33.576Z,18.80
2023-01-27T05:42:33.571Z,20.50
2023-01-27T05:43:33.556Z,20.40
2023-01-27T05:44:33.551Z,19.20
2023-01-27T05:45:33.539Z,20.00
2023-01-27T05:46:33.630Z,19.60
2023-01-27T05:47:33.524Z,21.10
2023-01-27T05:48:33.506Z,17.80
2023-01-27T05:49:33.496Z,18.50
2023-01-27T05:50:33.505Z,19.40
2023-01-27T05:51:33.476Z,20.40
2023-01-27T05:52:33.465Z,19.80
2023-01-27T05:53:33.455Z,21.00
2023-01-27T05:54:33.443Z,19.90
2023-01-27T05:55:33.437Z,19.00
2023-01-27T05:56:33.423Z,19.60
2023-01-27T05:57:33.414Z,19.40
2023-01-27T05:58:33.407Z,20.40
2023-01-27T05:59:33.391Z,19.70
2023-01-27T06:00:33.395Z,20.40
2023-01-27T06:01:33.398Z,19.90
2023-01-27T06:02:33.449Z,18.60
2023-01-27T06:03:33.352Z,20.80
2023-01-27T06:04:33.342Z,19.90
2023-01-27T06:05:33.331Z,21.00
2023-01-27T06:06:33.349Z,21.60
2023-01-27T06:07:33.334Z,20.60
2023-01-27T06:08:33.300Z,19.70
2023-01-27T06:09:33.291Z,19.60
2023-01-27T06:10:33.280Z,21.60
2023-01-27T06:11:33.271Z,20.40
2023-01-27T06:12:33.268Z,19.70
2023-01-27T06:13:33.254Z,20.30
2023-01-27T06:14:33.239Z,20.20
2023-01-27T06:15:33.231Z,20.30
2023-01-27T06:16:33.283Z,19.70
2023-01-27T06:17:33.212Z,19.90
2023-01-27T06:18:33.198Z,20.40
2023-01-27T06:19:33.191Z,17.50
2023-01-27T06:20:33.185Z,19.70
2023-01-27T06:21:33.171Z,20.60
2023-01-27T06:22:33.178Z,19.20
2023-01-27T06:23:33.191Z,20.20
2023-01-27T06:24:33.181Z,17.80
2023-01-27T06:25:33.132Z,19.90
2023-01-27T06:26:33.122Z,17.90
2023-01-27T06:27:33.112Z,19.60
2023-01-27T06:28:33.113Z,17.70
2023-01-27T06:29:33.095Z,20.70
2023-01-27T06:30:33.076Z,18.70
2023-01-27T06:31:33.158Z,19.00
2023-01-27T06:32:33.064Z,20.90
2023-01-27T06:33:33.065Z,19.10
2023-01-27T06:34:33.038Z,19.50
2023-01-27T06:35:33.028Z,18.70
2023-01-27T06:36:33.023Z,18.30
2023-01-27T06:37:33.011Z,18.20
2023-01-27T06:38:33.017Z,17.30
2023-01-27T06:39:32.989Z,17.40
2023-01-27T06:40:32.984Z,20.90
2023-01-27T06:41:32.978Z,17.90
2023-01-27T06:42:32.958Z,17.40
2023-01-27T06:43:32.952Z,17.80
2023-01-27T06:44:32.945Z,18.00
2023-01-27T06:45:32.940Z,17.30
2023-01-27T06:46:33.011Z,17.60
2023-01-27T06:47:32.911Z,17.70
2023-01-27T06:48:32.917Z,18.10
2023-01-27T06:49:32.895Z,17.50
2023-01-27T06:50:32.877Z,17.10
2023-01-27T06:51:32.877Z,16.30
2023-01-27T06:52:32.859Z,17.20
2023-01-27T06:53:32.848Z,16.90
2023-01-27T06:54:32.856Z,16.50
2023-01-27T06:55:32.830Z,17.60
2023-01-27T06:56:32.829Z,17.50
2023-01-27T06:57:32.833Z,16.30
2023-01-27T06:58:32.800Z,18.20
2023-01-27T06:59:32.802Z,17.50
2023-01-27T07:00:32.781Z,18.00
2023-01-27T07:01:32.830Z,19.70
2023-01-27T07:02:32.775Z,16.80
2023-01-27T07:03:32.757Z,16.80
2023-01-27T07:04:32.746Z,18.20
2023-01-27T07:05:32.731Z,16.90
2023-01-27T07:06:32.721Z,18.30
2023-01-27T07:07:32.710Z,18.70
2023-01-27T07:08:32.699Z,16.10
2023-01-27T07:09:42.880Z,16.50
2023-01-27T07:10:32.731Z,17.30
2023-01-27T07:11:32.674Z,16.70
2023-01-27T07:12:32.659Z,17.20
2023-01-27T07:13:32.655Z,18.20
2023-01-27T07:14:32.641Z,15.40
2023-01-27T07:15:32.641Z,16.40
2023-01-27T07:16:32.700Z,16.30
2023-01-27T07:17:32.629Z,19.40
2023-01-27T07:18:32.604Z,16.80
2023-01-27T07:19:34.571Z,18.20
2023-01-27T07:20:32.605Z,16.90
2023-01-27T07:21:32.574Z,17.60
2023-01-27T07:22:32.581Z,18.20
2023-01-27T07:23:32.561Z,18.10
2023-01-27T07:24:32.544Z,17.00
2023-01-27T07:25:32.544Z,17.10
2023-01-27T07:26:32.538Z,19.30
2023-01-27T07:27:32.517Z,18.10
2023-01-27T07:28:32.507Z,17.90
2023-01-27T07:29:32.494Z,18.80
2023-01-27T07:30:32.486Z,19.80
2023-01-27T07:31:32.510Z,18.10
2023-01-27T07:32:32.463Z,18.10
2023-01-27T07:33:32.458Z,18.80
2023-01-27T07:34:32.442Z,21.10
2023-01-27T07:35:32.441Z,19.10
2023-01-27T07:36:32.423Z,18.40
2023-01-27T07:37:33.814Z,19.00
2023-01-27T07:38:32.424Z,20.70
2023-01-27T07:39:32.399Z,19.70
2023-01-27T07:40:32.386Z,17.50
2023-01-27T07:41:32.382Z,19.00
2023-01-27T07:42:32.387Z,18.50
2023-01-27T07:43:32.357Z,18.20
2023-01-27T07:44:32.348Z,17.90
2023-01-27T07:45:32.415Z,17.40
2023-01-27T07:46:32.329Z,18.30
2023-01-27T07:47:32.319Z,18.30
2023-01-27T07:48:32.311Z,17.30
2023-01-27T07:49:32.297Z,18.00
2023-01-27T07:50:32.282Z,18.90
2023-01-27T07:51:32.276Z,17.80
2023-01-27T07:52:32.299Z,16.70
2023-01-27T07:53:32.267Z,17.30
2023-01-27T07:54:32.247Z,16.80
2023-01-27T07:55:32.251Z,16.40
2023-01-27T07:56:32.237Z,16.30
2023-01-27T07:57:32.234Z,17.70
2023-01-27T07:58:32.225Z,16.90
2023-01-27T07:59:32.197Z,17.20
2023-01-27T08:00:32.188Z,17.50
2023-01-27T08:01:32.177Z,16.60
2023-01-27T08:02:32.168Z,18.00
2023-01-27T08:03:32.175Z,15.90
2023-01-27T08:04:43.481Z,16.60
2023-01-27T08:05:32.147Z,18.50
2023-01-27T08:06:32.126Z,17.60
2023-01-27T08:07:32.116Z,17.30
2023-01-27T08:08:32.108Z,16.60
2023-01-27T08:09:32.099Z,16.50
2023-01-27T08:10:32.120Z,17.40
2023-01-27T08:11:32.078Z,18.10
2023-01-27T08:12:32.083Z,17.40
2023-01-27T08:13:32.059Z,16.50
2023-01-27T08:14:32.069Z,16.50
2023-01-27T08:15:32.045Z,15.10
2023-01-27T08:16:32.042Z,15.10
2023-01-27T08:17:32.028Z,15.00
2023-01-27T08:18:32.005Z,15.00
2023-01-27T08:19:32.013Z,16.40
2023-01-27T08:20:31.986Z,16.20
2023-01-27T08:21:31.986Z,15.40
2023-01-27T08:22:31.968Z,15.20
2023-01-27T08:23:31.957Z,15.10
2023-01-27T08:24:31.945Z,15.60
2023-01-27T08:25:31.939Z,14.80
2023-01-27T08:26:31.925Z,13.70
2023-01-27T08:27:31.918Z,16.10
2023-01-27T08:28:31.907Z,14.70
2023-01-27T08:29:31.898Z,14.90
2023-01-27T08:30:31.931Z,13.40
2023-01-27T08:31:31.924Z,14.10
2023-01-27T08:32:31.868Z,15.10
2023-01-27T08:33:31.857Z,13.20
2023-01-27T08:34:31.846Z,13.70
2023-01-27T08:35:31.841Z,13.80
2023-01-27T08:36:31.834Z,14.20
2023-01-27T08:37:31.820Z,14.30
2023-01-27T08:38:31.807Z,13.70
2023-01-27T08:39:31.809Z,15.00
2023-01-27T08:40:31.786Z,13.50
2023-01-27T08:41:31.791Z,13.20
2023-01-27T08:42:31.767Z,13.70
2023-01-27T08:43:31.759Z,13.60
2023-01-27T08:44:31.749Z,14.90
2023-01-27T08:45:31.740Z,14.20
2023-01-27T08:46:31.765Z,13.90
2023-01-27T08:47:31.720Z,15.90
2023-01-27T08:48:31.706Z,14.60
2023-01-27T08:49:31.701Z,14.90
2023-01-27T08:50:32.039Z,13.90
2023-01-27T08:51:31.677Z,15.30
2023-01-27T08:52:31.669Z,16.60
2023-01-27T08:53:31.673Z,15.80
2023-01-27T08:54:31.652Z,16.40
2023-01-27T08:55:31.642Z,15.20
2023-01-27T08:56:31.645Z,15.30
2023-01-27T08:57:31.622Z,16.60
2023-01-27T08:58:31.623Z,16.20
2023-01-27T08:59:31.602Z,16.00
2023-01-27T09:00:31.592Z,17.80
2023-01-27T09:01:31.649Z,17.50
2023-01-27T09:02:31.602Z,16.80
2023-01-27T09:03:31.567Z,18.50
2023-01-27T09:04:31.639Z,18.50
2023-01-27T09:05:31.547Z,18.50
2023-01-27T09:06:31.548Z,19.20
2023-01-27T09:07:31.553Z,18.00
2023-01-27T09:08:31.518Z,18.70
2023-01-27T09:09:31.510Z,18.40
2023-01-27T09:10:31.500Z,17.90
2023-01-27T09:11:31.495Z,17.10
2023-01-27T09:12:31.479Z,16.00
2023-01-27T09:13:31.467Z,16.40
2023-01-27T09:14:31.457Z,15.70
2023-01-27T09:15:31.455Z,17.20
2023-01-27T09:16:31.481Z,15.60
2023-01-27T09:17:31.469Z,15.60
2023-01-27T09:18:31.443Z,15.60
2023-01-27T09:19:31.429Z,15.90
2023-01-27T09:20:31.404Z,15.70
2023-01-27T09:21:31.394Z,15.50
2023-01-27T09:22:31.383Z,15.10
2023-01-27T09:23:31.375Z,15.60
2023-01-27T09:24:31.376Z,15.50
2023-01-27T09:25:31.359Z,17.20
2023-01-27T09:26:31.345Z,15.40
2023-01-27T09:27:39.054Z,14.80
2023-01-27T09:28:31.320Z,16.10
2023-01-27T09:29:31.316Z,16.10
2023-01-27T09:30:31.302Z,16.30
2023-01-27T09:31:31.369Z,17.00
2023-01-27T09:32:31.281Z,15.80
2023-01-27T09:33:31.275Z,15.90
2023-01-27T09:34:31.283Z,17.10
2023-01-27T09:35:31.256Z,17.00
2023-01-27T09:36:31.245Z,13.80
2023-01-27T09:37:31.237Z,15.10
2023-01-27T09:38:31.238Z,15.10
2023-01-27T09:39:31.221Z,16.00
2023-01-27T09:40:31.205Z,15.70
2023-01-27T09:41:31.208Z,15.80
2023-01-27T09:42:31.188Z,16.00
2023-01-27T09:43:31.187Z,14.60
2023-01-27T09:44:31.169Z,15.10
2023-01-27T09:45:31.169Z,14.90
2023-01-27T09:46:31.221Z,13.50
2023-01-27T09:47:31.144Z,16.00
2023-01-27T09:48:31.134Z,15.00
2023-01-27T09:49:31.121Z,15.00
2023-01-27T09:50:31.477Z,13.70
2023-01-27T09:51:31.101Z,15.60
2023-01-27T09:52:46.418Z,14.30
2023-01-27T09:53:31.090Z,14.80
2023-01-27T09:54:31.086Z,14.50
2023-01-27T09:55:31.062Z,14.40
2023-01-27T09:56:31.052Z,14.70
2023-01-27T09:57:31.042Z,14.20
2023-01-27T09:58:31.033Z,14.20
2023-01-27T09:59:31.031Z,14.10
2023-01-27T10:00:31.023Z,14.40
2023-01-27T10:01:31.019Z,15.20
2023-01-27T10:02:30.998Z,14.80
2023-01-27T10:03:30.992Z,14.70
2023-01-27T10:04:31.061Z,14.50
2023-01-27T10:05:30.969Z,15.00
2023-01-27T10:06:33.183Z,15.20
2023-01-27T10:07:30.947Z,15.30
2023-01-27T10:08:30.940Z,15.70
2023-01-27T10:09:30.929Z,15.30
2023-01-27T10:10:30.915Z,15.60
2023-01-27T10:11:30.909Z,15.90
2023-01-27T10:12:30.905Z,14.80
2023-01-27T10:13:30.887Z,15.10
2023-01-27T10:14:31.179Z,16.20
2023-01-27T10:15:30.867Z,14.90
2023-01-27T10:16:30.891Z,15.00
2023-01-27T10:17:30.853Z,13.40
2023-01-27T10:18:30.849Z,13.10
2023-01-27T10:19:30.837Z,13.90
2023-01-27T10:20:30.819Z,13.90
2023-01-27T10:21:30.816Z,13.30
2023-01-27T10:22:30.819Z,14.10
2023-01-27T10:23:30.811Z,13.30
2023-01-27T10:24:30.793Z,13.10
2023-01-27T10:25:30.772Z,13.80
2023-01-27T10:26:30.773Z,12.80
2023-01-27T10:27:30.756Z,12.30
2023-01-27T10:28:30.746Z,13.20
2023-01-27T10:29:30.741Z,12.50
2023-01-27T10:30:30.725Z,12.40
2023-01-27T10:31:30.768Z,13.00
2023-01-27T10:32:30.738Z,11.90
2023-01-27T10:33:30.693Z,11.30
2023-01-27T10:34:30.689Z,11.30
2023-01-27T10:35:30.675Z,11.60
2023-01-27T10:36:30.668Z,11.30
2023-01-27T10:37:30.655Z,11.20
2023-01-27T10:38:30.670Z,11.70
2023-01-27T10:39:30.636Z,10.90
2023-01-27T10:40:30.628Z,11.20
2023-01-27T10:41:30.616Z,11.70
2023-01-27T10:42:30.610Z,10.60
2023-01-27T10:43:30.598Z,10.90
2023-01-27T10:44:30.589Z,11.40
2023-01-27T10:45:30.595Z,10.80
2023-01-27T10:46:30.598Z,10.40
2023-01-27T10:47:30.558Z,11.50
2023-01-27T10:48:30.553Z,12.10
2023-01-27T10:49:30.541Z,12.30
2023-01-27T10:50:30.529Z,13.00
2023-01-27T10:51:30.520Z,11.60
2023-01-27T10:52:30.517Z,13.30
2023-01-27T10:53:30.503Z,13.80
2023-01-27T10:54:30.521Z,13.50
2023-01-27T10:55:30.493Z,12.30
2023-01-27T10:56:30.481Z,13.40
2023-01-27T10:57:30.462Z,13.70
2023-01-27T10:58:30.454Z,16.10
2023-01-27T10:59:30.462Z,15.50
2023-01-27T11:01:30.957Z,13.50
2023-01-27T11:02:30.420Z,13.80
2023-01-27T11:03:30.406Z,13.30
2023-01-27T11:04:30.417Z,13.40
2023-01-27T11:05:30.386Z,13.40
2023-01-27T11:06:30.384Z,13.90
2023-01-27T11:07:30.366Z,14.30
2023-01-27T11:08:30.363Z,13.60
2023-01-27T11:09:30.359Z,12.70
2023-01-27T11:10:30.359Z,13.70
2023-01-27T11:11:30.330Z,13.10
2023-01-27T11:12:30.340Z,14.20
2023-01-27T11:13:30.314Z,13.20
2023-01-27T11:14:30.317Z,12.80
2023-01-27T11:15:30.301Z,13.10
2023-01-27T11:16:30.330Z,13.20
2023-01-27T11:17:30.286Z,12.10
2023-01-27T11:18:30.279Z,12.50
2023-01-27T11:19:30.255Z,12.50
2023-01-27T11:20:30.256Z,12.20
2023-01-27T11:21:30.240Z,12.50
2023-01-27T11:22:30.227Z,12.80
2023-01-27T11:23:30.218Z,13.10
2023-01-27T11:24:30.210Z,13.60
2023-01-27T11:25:30.205Z,13.20
2023-01-27T11:26:30.222Z,15.40
2023-01-27T11:27:30.186Z,12.40
2023-01-27T11:28:30.182Z,13.90
2023-01-27T11:29:30.159Z,14.30
2023-01-27T11:30:30.202Z,13.10
2023-01-27T11:31:30.319Z,12.50
2023-01-27T11:32:30.144Z,13.20
2023-01-27T11:33:30.125Z,14.20
2023-01-27T11:34:30.118Z,13.30
2023-01-27T11:35:30.112Z,14.70
2023-01-27T11:36:30.099Z,12.90
2023-01-27T11:37:30.089Z,13.70
2023-01-27T11:38:30.080Z,13.30
2023-01-27T11:39:30.068Z,13.70
2023-01-27T11:40:30.066Z,13.40
2023-01-27T11:41:30.057Z,13.70
2023-01-27T11:42:30.065Z,13.10
2023-01-27T11:43:30.035Z,13.80
2023-01-27T11:44:30.030Z,13.50
2023-01-27T11:45:30.061Z,13.60
2023-01-27T11:46:30.007Z,14.00
2023-01-27T11:47:29.997Z,12.60
2023-01-27T11:48:29.990Z,13.20
2023-01-27T11:49:29.985Z,13.30
2023-01-27T11:50:29.980Z,12.70
2023-01-27T11:51:29.964Z,12.80
2023-01-27T11:52:29.955Z,13.00
2023-01-27T11:53:29.952Z,12.00
2023-01-27T11:54:29.935Z,11.80
2023-01-27T11:55:29.929Z,12.20
2023-01-27T11:56:29.918Z,13.40
2023-01-27T11:57:29.910Z,11.80
2023-01-27T11:58:29.918Z,11.90
2023-01-27T11:59:29.897Z,13.10
2023-01-27T12:00:29.885Z,12.00
2023-01-27T12:01:29.882Z,12.50
2023-01-27T12:02:29.864Z,13.30
2023-01-27T12:03:29.876Z,12.40
2023-01-27T12:04:29.931Z,12.00
2023-01-27T12:05:29.839Z,12.30
2023-01-27T12:06:29.829Z,12.60
2023-01-27T12:07:29.818Z,12.40
2023-01-27T12:08:29.812Z,12.80
2023-01-27T12:09:29.800Z,12.10
2023-01-27T12:10:29.789Z,11.50
2023-01-27T12:11:29.789Z,12.40
2023-01-27T12:12:29.776Z,11.60
2023-01-27T12:13:29.766Z,12.00
2023-01-27T12:14:29.777Z,12.00
2023-01-27T12:15:29.744Z,12.10
2023-01-27T12:16:29.738Z,11.60
2023-01-27T12:17:29.730Z,11.50
2023-01-27T12:18:29.723Z,11.20
2023-01-27T12:19:29.714Z,11.20
2023-01-27T12:20:29.702Z,11.00
2023-01-27T12:21:29.692Z,11.10
2023-01-27T12:22:29.710Z,11.50
2023-01-27T12:23:29.675Z,11.40
2023-01-27T12:24:29.771Z,10.90
2023-01-27T12:25:29.665Z,11.00
2023-01-27T12:26:29.651Z,10.90
2023-01-27T12:27:29.645Z,11.20
2023-01-27T12:28:29.653Z,11.00
2023-01-27T12:29:29.635Z,11.40
2023-01-27T12:30:29.637Z,11.40
2023-01-27T12:31:29.785Z,11.10
2023-01-27T12:32:29.596Z,10.50
2023-01-27T12:33:29.588Z,10.30
2023-01-27T12:34:29.601Z,10.80
2023-01-27T12:35:29.578Z,10.20
2023-01-27T12:36:30.427Z,10.10
2023-01-27T12:37:29.564Z,11.00
2023-01-27T12:38:29.543Z,10.80
2023-01-27T12:39:29.533Z,10.90
2023-01-27T12:40:29.526Z,10.70
2023-01-27T12:41:29.514Z,10.80
2023-01-27T12:42:29.509Z,11.00
2023-01-27T12:43:29.497Z,11.50
2023-01-27T12:44:29.491Z,11.00
2023-01-27T12:45:29.488Z,11.50
2023-01-27T12:46:29.556Z,11.20
2023-01-27T12:47:29.462Z,11.30
2023-01-27T12:48:29.461Z,12.10
2023-01-27T12:49:29.450Z,11.50
2023-01-27T12:50:29.438Z,11.40
2023-01-27T12:51:29.429Z,11.40
2023-01-27T12:52:29.422Z,12.20
2023-01-27T12:53:29.416Z,11.80